Time;durP1;ratioP1;P1;durP2;ratioP2;P2;SDS_P1;SDS_P2;PMS_P1;PMS_P2;Temp;Humidity;BMP_temperature;BMP_pressure;BME280_temperature;BME280_humidity;BME280_pressure;Samples;Min_cycle;Max_cycle;Signal;HPM_P1;HPM_P2
2021/04/04 00:00:12;;;;;;;7.13;5.63;;;;;;;4.13;58.24;95872.63;5084827;28;20131;-61
2021/04/04 00:02:38;;;;;;;9.07;5.72;;;;;;;4.08;58.79;95877.81;5084703;27;20052;-66
2021/04/04 00:05:05;;;;;;;7.20;5.78;;;;;;;4.03;58.97;95873.28;5085198;28;20030;-61
2021/04/04 00:07:31;;;;;;;13.15;6.85;;;;;;;3.75;58.58;95832.16;5085319;28;20037;-61
2021/04/04 00:09:56;;;;;;;10.15;5.78;;;;;;;3.86;59.23;95854.13;5083770;28;20028;-61
2021/04/04 00:12:22;;;;;;;8.68;5.93;;;;;;;3.90;59.32;95869.19;5084762;28;20079;-62
2021/04/04 00:14:47;;;;;;;9.38;5.50;;;;;;;3.71;59.27;95840.78;5100624;27;20043;-62
2021/04/04 00:17:13;;;;;;;10.30;5.68;;;;;;;3.67;59.87;95826.50;5088350;28;20040;-61
2021/04/04 00:19:38;;;;;;;8.63;5.05;;;;;;;3.68;59.38;95839.41;5106996;28;20188;-61
2021/04/04 00:22:04;;;;;;;8.00;5.47;;;;;;;3.44;59.69;95798.59;5104826;27;20529;-62
2021/04/04 00:24:29;;;;;;;8.38;5.97;;;;;;;3.64;59.74;95843.59;5105068;27;20044;-60
2021/04/04 00:26:54;;;;;;;13.05;6.22;;;;;;;3.57;60.38;95835.84;5104780;27;20088;-61
2021/04/04 00:29:20;;;;;;;10.88;5.60;;;;;;;3.32;59.88;95804.72;5104934;27;20036;-61
2021/04/04 00:31:45;;;;;;;8.52;5.95;;;;;;;3.35;60.02;95827.13;5098268;28;20024;-61
2021/04/04 00:34:11;;;;;;;12.27;6.13;;;;;;;3.38;60.23;95826.66;5089666;28;20047;-61
2021/04/04 00:36:36;;;;;;;7.30;5.80;;;;;;;3.31;60.24;95818.91;5090917;28;20032;-61
2021/04/04 00:39:07;;;;;;;10.25;6.20;;;;;;;3.54;60.71;95860.03;5090658;28;20537;-61
2021/04/04 00:41:33;;;;;;;8.52;5.85;;;;;;;3.19;61.05;95810.34;5089551;28;20036;-63
2021/04/04 00:43:58;;;;;;;7.20;5.55;;;;;;;3.19;61.12;95814.81;5106629;28;20024;-61
2021/04/04 00:46:24;;;;;;;10.40;5.93;;;;;;;3.16;60.74;95817.91;5093035;28;20412;-62
2021/04/04 00:48:50;;;;;;;8.73;5.93;;;;;;;3.29;61.26;95839.41;5090620;28;20374;-61
2021/04/04 00:51:15;;;;;;;8.65;6.18;;;;;;;3.33;61.08;95843.16;5090538;28;20480;-62
2021/04/04 00:53:41;;;;;;;8.27;6.72;;;;;;;3.05;61.16;95814.31;5090733;28;20115;-61
2021/04/04 00:56:07;;;;;;;11.95;6.47;;;;;;;3.13;60.75;95833.13;5105393;28;20040;-62
2021/04/04 00:58:32;;;;;;;12.95;7.03;;;;;;;3.15;61.32;95843.38;5092697;28;20043;-61
2021/04/04 01:00:58;;;;;;;22.35;7.32;;;;;;;2.95;61.81;95822.84;5090666;28;20554;-61
2021/04/04 01:03:23;;;;;;;13.48;6.90;;;;;;;3.14;61.51;95857.56;5092598;27;20398;-61
2021/04/04 01:05:52;;;;;;;14.07;6.45;;;;;;;3.04;62.05;95850.31;5070483;28;20040;-62
2021/04/04 01:08:18;;;;;;;9.23;6.57;;;;;;;2.91;62.06;95840.09;5070072;28;20044;-61
2021/04/04 01:10:46;;;;;;;8.48;6.05;;;;;;;2.78;62.07;95824.66;5072483;28;20025;-62
2021/04/04 01:13:17;;;;;;;12.13;6.93;;;;;;;2.96;62.37;95860.41;5068968;28;20052;-61
2021/04/04 01:16:00;;;;;;;12.73;6.75;;;;;;;2.91;61.96;95850.63;5086612;28;20061;-64
2021/04/04 01:18:48;;;;;;;12.70;6.75;;;;;;;2.86;62.58;95855.78;5090422;28;20121;-61
2021/04/04 01:21:21;;;;;;;14.35;7.50;;;;;;;2.79;62.40;95847.28;5077869;28;20071;-61
2021/04/04 01:24:23;;;;;;;10.30;6.72;;;;;;;2.74;62.40;95849.81;5070216;28;20033;-61
2021/04/04 01:26:53;;;;;;;6.35;5.47;;;;;;;2.69;62.87;95850.53;5069766;28;20045;-61
2021/04/04 01:29:21;;;;;;;7.30;5.90;;;;;;;2.41;62.74;95809.34;5068741;28;20048;-61
2021/04/04 01:31:49;;;;;;;13.30;6.70;;;;;;;2.59;63.38;95848.50;5071683;28;20078;-62
2021/04/04 01:34:16;;;;;;;10.77;6.93;;;;;;;2.41;63.42;95819.03;5070200;28;20047;-62
2021/04/04 01:36:43;;;;;;;12.52;6.93;;;;;;;2.51;63.50;95838.41;5068279;28;20053;-61
2021/04/04 01:39:11;;;;;;;10.68;6.70;;;;;;;2.37;63.34;95821.34;5069227;28;20036;-61
2021/04/04 01:41:41;;;;;;;10.63;6.45;;;;;;;2.43;63.62;95830.09;5069649;28;20036;-61
2021/04/04 01:44:14;;;;;;;9.68;5.82;;;;;;;2.49;63.77;95847.53;5068665;28;20501;-61
2021/04/04 01:46:41;;;;;;;9.73;6.38;;;;;;;2.24;64.44;95824.22;5071752;28;20028;-61
2021/04/04 01:49:07;;;;;;;9.40;5.75;;;;;;;2.31;64.72;95851.16;5067899;28;20094;-61
2021/04/04 01:51:34;;;;;;;13.75;7.00;;;;;;;2.13;65.04;95827.69;5069135;28;20127;-62
2021/04/04 01:54:04;;;;;;;9.45;6.10;;;;;;;2.24;65.52;95850.47;5079551;28;20040;-62
2021/04/04 01:56:30;;;;;;;11.40;6.75;;;;;;;2.09;66.47;95845.72;5089725;28;20051;-61
2021/04/04 01:58:57;;;;;;;11.52;6.15;;;;;;;2.17;66.23;95849.84;5088265;28;20052;-62
2021/04/04 02:01:23;;;;;;;8.85;6.38;;;;;;;2.16;65.64;95827.25;5071118;28;20025;-61
2021/04/04 02:03:49;;;;;;;10.90;6.32;;;;;;;2.21;65.42;95845.72;5069466;28;20041;-62
2021/04/04 02:06:16;;;;;;;8.07;5.93;;;;;;;2.17;65.23;95834.09;5069323;28;20049;-62
2021/04/04 02:08:42;;;;;;;11.90;6.60;;;;;;;1.95;65.28;95800.63;5069160;28;20120;-62
2021/04/04 02:11:19;;;;;;;12.00;6.30;;;;;;;1.83;65.35;95794.59;5067690;28;20044;-60
2021/04/04 02:13:47;;;;;;;8.52;6.63;;;;;;;2.15;65.20;95844.81;5071249;28;20025;-61
2021/04/04 02:16:12;;;;;;;9.57;6.68;;;;;;;1.92;66.09;95826.50;5069636;28;20395;-62
2021/04/04 02:18:38;;;;;;;11.07;6.40;;;;;;;2.09;65.94;95848.34;5067570;28;20048;-60
2021/04/04 02:21:04;;;;;;;10.23;7.07;;;;;;;2.07;66.03;95848.59;5068742;28;20616;-62
2021/04/04 02:23:30;;;;;;;11.82;6.78;;;;;;;2.04;65.46;95841.19;5068839;28;20055;-62
2021/04/04 02:25:57;;;;;;;10.68;6.55;;;;;;;2.00;65.72;95840.06;5067591;28;20498;-61
2021/04/04 02:28:23;;;;;;;10.13;7.00;;;;;;;1.98;65.42;95847.34;5070692;28;20029;-61
2021/04/04 02:30:50;;;;;;;9.98;6.05;;;;;;;1.80;66.31;95814.22;5068565;28;20573;-62
2021/04/04 02:33:40;;;;;;;10.18;6.72;;;;;;;1.66;65.88;95798.97;5067083;28;20453;-62
2021/04/04 02:36:12;;;;;;;10.00;7.10;;;;;;;1.88;65.94;95830.63;5068902;28;20057;-62
2021/04/04 02:38:42;;;;;;;10.75;6.88;;;;;;;1.79;66.19;95817.88;5068587;28;20025;-62
2021/04/04 02:41:09;;;;;;;11.25;7.28;;;;;;;1.83;65.87;95834.72;5068568;28;20028;-62
2021/04/04 02:43:38;;;;;;;10.82;6.60;;;;;;;1.65;66.02;95805.25;5070536;28;20025;-61
2021/04/04 02:46:08;;;;;;;10.90;7.60;;;;;;;1.69;66.50;95809.81;5068722;28;20441;-62
2021/04/04 02:48:39;;;;;;;15.80;7.45;;;;;;;1.46;66.54;95781.78;5084075;28;20032;-61
2021/04/04 02:51:07;;;;;;;11.57;6.95;;;;;;;1.46;66.45;95778.38;5068508;28;20036;-62
2021/04/04 02:53:39;;;;;;;10.68;7.07;;;;;;;1.81;66.63;95836.00;5068321;28;20466;-62
2021/04/04 02:56:06;;;;;;;14.27;7.45;;;;;;;1.66;66.56;95814.72;5066520;28;20024;-61
2021/04/04 02:58:34;;;;;;;9.80;6.93;;;;;;;1.78;66.79;95833.81;5069463;28;20059;-62
2021/04/04 03:01:01;;;;;;;11.32;6.03;;;;;;;1.54;66.82;95799.00;5067126;28;20036;-62
2021/04/04 03:03:29;;;;;;;10.15;6.72;;;;;;;1.54;66.76;95804.25;5082270;28;20064;-61
2021/04/04 03:05:57;;;;;;;16.95;7.35;;;;;;;0.51;67.02;95649.31;5088780;28;20036;-62
2021/04/04 03:08:24;;;;;;;10.93;7.40;;;;;;;1.72;67.15;95832.13;5083582;28;20131;-62
2021/04/04 03:10:51;;;;;;;11.77;6.30;;;;;;;1.41;66.93;95786.94;5068554;28;20086;-62
2021/04/04 03:13:20;;;;;;;12.57;7.60;;;;;;;1.55;67.08;95811.88;5070401;28;20108;-60
2021/04/04 03:15:47;;;;;;;9.10;6.80;;;;;;;1.66;67.06;95828.63;5068686;28;20162;-62
2021/04/04 03:18:13;;;;;;;12.52;6.85;;;;;;;1.68;67.28;95831.00;5068256;28;20040;-61
2021/04/04 03:20:38;;;;;;;11.88;6.85;;;;;;;1.67;67.10;95829.41;5073791;28;20043;-62
2021/04/04 03:23:05;;;;;;;11.63;6.15;;;;;;;1.46;67.64;95815.06;5088255;28;20099;-61
2021/04/04 03:25:31;;;;;;;15.07;6.97;;;;;;;1.53;68.03;95819.16;5090415;28;20031;-62
2021/04/04 03:27:57;;;;;;;10.85;6.72;;;;;;;1.50;67.96;95810.97;5088195;28;20048;-61
2021/04/04 03:30:35;;;;;;;9.88;6.40;;;;;;;1.55;67.82;95808.47;5073804;28;20051;-62
2021/04/04 03:33:04;;;;;;;12.50;6.38;;;;;;;1.49;67.52;95791.81;5067905;28;20037;-61
2021/04/04 03:35:31;;;;;;;23.80;8.73;;;;;;;1.48;67.56;95784.16;5068024;28;20127;-62
2021/04/04 03:37:58;;;;;;;15.85;7.28;;;;;;;1.70;67.46;95807.97;5067651;28;20039;-61
2021/04/04 03:40:24;;;;;;;12.13;6.88;;;;;;;1.73;67.10;95805.66;5070177;28;20021;-62
2021/04/04 03:42:51;;;;;;;15.45;7.18;;;;;;;1.81;67.17;95815.00;5067940;28;20032;-62
2021/04/04 03:45:17;;;;;;;11.10;6.93;;;;;;;1.74;67.09;95799.41;5067932;28;20119;-61
2021/04/04 03:47:44;;;;;;;8.93;6.88;;;;;;;1.91;67.00;95828.34;5075609;28;20103;-62
2021/04/04 03:50:10;;;;;;;8.15;6.93;;;;;;;1.61;67.43;95772.66;5086779;28;20036;-61
2021/04/04 03:52:40;;;;;;;13.38;6.45;;;;;;;1.75;66.97;95794.97;5089956;28;20108;-61
2021/04/04 03:55:08;;;;;;;12.07;6.97;;;;;;;1.00;66.78;95672.59;5069076;28;20123;-61
2021/04/04 03:57:37;;;;;;;11.38;6.57;;;;;;;1.86;66.68;95811.69;5081371;28;20051;-62
2021/04/04 04:00:07;;;;;;;10.95;7.05;;;;;;;1.81;66.84;95812.41;5087836;28;20040;-62
2021/04/04 04:02:35;;;;;;;10.30;6.82;;;;;;;1.71;66.53;95812.19;5087794;28;20036;-62
2021/04/04 04:05:01;;;;;;;9.82;6.50;;;;;;;1.63;66.67;95812.53;5086074;28;20028;-61
2021/04/04 04:07:28;;;;;;;12.52;7.05;;;;;;;1.51;66.69;95794.22;5072329;28;20021;-62
2021/04/04 04:09:56;;;;;;;9.10;6.82;;;;;;;1.60;66.93;95815.63;5071591;28;20534;-61
2021/04/04 04:12:21;;;;;;;12.68;7.10;;;;;;;1.62;67.09;95834.53;5069851;28;20083;-62
2021/04/04 04:14:47;;;;;;;10.75;7.10;;;;;;;1.37;67.51;95805.97;5071641;28;20060;-61
2021/04/04 04:17:12;;;;;;;10.52;6.93;;;;;;;1.29;68.08;95813.16;5071169;28;20040;-62
2021/04/04 04:19:38;;;;;;;12.60;7.18;;;;;;;0.78;69.16;95790.25;5073090;28;20110;-61
2021/04/04 04:22:05;;;;;;;12.77;6.93;;;;;;;1.02;69.65;95817.22;5089812;28;20043;-62
2021/04/04 04:24:32;;;;;;;9.77;6.63;;;;;;;1.15;68.62;95800.50;5091619;28;20029;-61
2021/04/04 04:26:58;;;;;;;10.32;6.47;;;;;;;1.20;68.97;95793.56;5091497;28;20032;-62
2021/04/04 04:29:25;;;;;;;12.32;7.00;;;;;;;1.42;68.64;95827.84;5086684;28;20576;-62
2021/04/04 04:31:57;;;;;;;12.30;7.70;;;;;;;0.16;68.33;95630.19;5070842;28;20064;-61
2021/04/04 04:34:24;;;;;;;10.73;7.05;;;;;;;1.45;68.33;95830.00;5073088;28;20048;-62
2021/04/04 04:36:52;;;;;;;10.50;7.43;;;;;;;1.44;68.83;95815.31;5070982;28;20482;-63
2021/04/04 04:39:18;;;;;;;11.52;6.90;;;;;;;0.87;68.51;95723.41;5070897;28;20090;-61
2021/04/04 04:41:50;;;;;;;11.38;7.15;;;;;;;1.35;68.36;95792.28;5078573;28;20040;-62
2021/04/04 04:44:21;;;;;;;10.65;6.60;;;;;;;1.29;68.00;95794.81;5091335;28;20398;-60
2021/04/04 04:46:48;;;;;;;11.00;6.47;;;;;;;1.28;67.97;95789.81;5093124;28;20032;-62
2021/04/04 04:49:13;;;;;;;13.07;7.15;;;;;;;1.46;67.97;95820.31;5091631;28;20537;-61
2021/04/04 04:51:40;;;;;;;12.95;6.82;;;;;;;1.45;68.04;95819.53;5073934;28;20178;-62
2021/04/04 04:54:06;;;;;;;12.55;6.32;;;;;;;1.42;67.80;95814.72;5069569;28;20131;-62
2021/04/04 04:56:36;;;;;;;11.40;6.78;;;;;;;1.11;67.95;95760.06;5070882;28;20044;-61
2021/04/04 04:59:03;;;;;;;13.05;7.32;;;;;;;1.42;67.74;95800.81;5070793;28;20478;-62
2021/04/04 05:01:36;;;;;;;9.90;7.22;;;;;;;1.36;68.17;95792.06;5071033;28;20029;-61
2021/04/04 05:04:02;;;;;;;12.57;6.70;;;;;;;1.17;67.92;95756.50;5070567;28;20402;-61
2021/04/04 05:06:28;;;;;;;9.45;6.30;;;;;;;1.52;67.64;95817.56;5084798;28;20177;-62
2021/04/04 05:08:58;;;;;;;13.93;6.80;;;;;;;1.49;67.58;95802.31;5090706;28;20032;-61
2021/04/04 05:11:24;;;;;;;11.85;6.25;;;;;;;1.34;67.97;95773.16;5090559;28;20024;-61
2021/04/04 05:13:49;;;;;;;8.77;6.35;;;;;;;1.59;67.65;95806.16;5090740;28;20428;-62
2021/04/04 05:16:16;;;;;;;10.25;6.38;;;;;;;1.46;67.71;95789.66;5092801;28;20024;-62
2021/04/04 05:18:52;;;;;;;11.85;6.93;;;;;;;1.30;67.69;95754.47;5088974;28;20063;-62
2021/04/04 05:21:26;;;;;;;10.30;6.32;;;;;;;1.61;67.42;95789.16;5090358;28;20058;-61
2021/04/04 05:24:03;;;;;;;9.20;6.47;;;;;;;1.70;67.24;95793.03;5089398;28;20122;-61
2021/04/04 05:26:30;;;;;;;12.40;6.47;;;;;;;1.57;67.04;95772.31;5090540;28;20101;-61
2021/04/04 05:29:01;;;;;;;11.18;7.00;;;;;;;1.97;66.94;95814.28;5089160;28;20107;-61
2021/04/04 05:31:27;;;;;;;9.77;6.97;;;;;;;1.95;66.95;95812.94;5071917;28;20488;-61
2021/04/04 05:33:52;;;;;;;10.52;6.45;;;;;;;2.12;66.59;95820.88;5070207;28;20060;-61
2021/04/04 05:36:18;;;;;;;8.55;7.15;;;;;;;2.19;66.77;95824.94;5070046;28;20090;-61
2021/04/04 05:38:43;;;;;;;14.45;6.93;;;;;;;2.18;66.41;95814.69;5069713;28;20117;-63
2021/04/04 05:41:11;;;;;;;11.65;7.15;;;;;;;2.07;66.59;95787.44;5069717;28;20398;-61
2021/04/04 05:43:40;;;;;;;10.15;6.95;;;;;;;1.96;66.30;95760.22;5071936;28;20043;-62
2021/04/04 05:46:10;;;;;;;12.82;6.93;;;;;;;2.50;66.52;95822.88;5069920;28;20174;-62
2021/04/04 05:49:04;;;;;;;9.65;7.03;;;;;;;2.64;65.75;95824.16;5069619;28;20040;-62
2021/04/04 05:51:38;;;;;;;9.73;6.70;;;;;;;2.53;65.32;95796.94;5068346;28;20056;-63
2021/04/04 05:54:25;;;;;;;11.75;7.80;;;;;;;2.86;65.48;95826.88;5069471;28;20043;-60
2021/04/04 05:56:53;;;;;;;12.85;6.80;;;;;;;2.73;65.37;95800.94;5067955;28;20051;-62
2021/04/04 05:59:44;;;;;;;11.10;7.53;;;;;;;2.95;65.27;95820.22;5069422;28;20040;-61
2021/04/04 06:02:57;;;;;;;10.85;6.97;;;;;;;3.10;65.01;95822.28;5069438;28;20406;-62
2021/04/04 06:05:22;;;;;;;11.75;7.60;;;;;;;3.24;65.57;95834.06;5052297;28;20094;-61
2021/04/04 06:08:45;;;;;;;11.48;7.55;;;;;;;3.37;64.79;95832.94;5067851;28;20064;-63
2021/04/04 06:11:28;;;;;;;14.27;7.95;;;;;;;3.41;64.66;95844.56;5046477;28;20111;-61
2021/04/04 06:14:00;;;;;;;9.90;7.45;;;;;;;3.20;64.66;95797.97;5045736;28;20033;-61
2021/04/04 06:16:44;;;;;;;11.63;7.32;;;;;;;2.75;64.82;95699.03;5055219;28;20451;-61
2021/04/04 06:19:16;;;;;;;11.52;7.35;;;;;;;3.36;64.46;95781.38;5088885;28;20105;-64
2021/04/04 06:21:56;;;;;;;9.90;7.30;;;;;;;3.87;64.03;95838.09;5087943;28;20040;-63
2021/04/04 06:24:33;;;;;;;8.90;7.57;;;;;;;3.68;63.82;95786.78;5089597;28;20043;-63
2021/04/04 06:27:20;;;;;;;8.13;6.78;;;;;;;4.03;63.55;95819.84;5079368;28;20041;-63
2021/04/04 06:30:00;;;;;;;9.75;7.32;;;;;;;4.23;63.53;95840.34;5068715;28;20036;-63
2021/04/04 06:32:39;;;;;;;7.82;6.82;;;;;;;4.28;63.69;95832.50;5073553;28;20043;-64
2021/04/04 06:35:13;;;;;;;10.63;7.57;;;;;;;4.50;63.36;95841.16;5086897;28;20032;-63
2021/04/04 06:37:54;;;;;;;10.52;6.93;;;;;;;4.61;62.92;95832.34;5070688;28;20089;-65
2021/04/04 06:40:30;;;;;;;8.93;6.60;;;;;;;4.68;62.62;95826.88;5068865;28;20063;-64
2021/04/04 06:43:08;;;;;;;7.68;6.80;;;;;;;3.62;63.08;95793.81;5068454;28;20084;-62
2021/04/04 06:45:42;;;;;;;9.80;7.05;;;;;;;3.46;64.01;95823.59;5068697;28;20490;-62
2021/04/04 06:48:48;;;;;;;12.95;7.57;;;;;;;3.83;63.37;95833.56;5068458;28;20417;-60
2021/04/04 06:51:23;;;;;;;12.20;6.97;;;;;;;3.95;62.43;95794.78;5068228;28;20045;-62
2021/04/04 06:53:51;;;;;;;10.80;7.47;;;;;;;4.22;62.59;95833.50;5068755;28;20664;-62
2021/04/04 06:56:34;;;;;;;12.32;6.90;;;;;;;4.40;62.05;95831.34;5068717;28;20656;-70
2021/04/04 06:59:20;;;;;;;10.45;7.32;;;;;;;3.97;62.48;95834.00;5067083;28;20488;-65
2021/04/04 07:02:09;;;;;;;8.15;6.85;;;;;;;4.36;61.39;95759.13;5068964;28;20052;-64
2021/04/04 07:04:51;;;;;;;13.57;7.03;;;;;;;4.78;61.76;95831.44;5087067;28;20378;-64
2021/04/04 07:07:38;;;;;;;12.18;7.82;;;;;;;4.99;60.79;95827.94;5088806;28;20028;-64
2021/04/04 07:10:22;;;;;;;9.10;7.00;;;;;;;5.21;60.60;95825.97;5088632;28;20135;-66
2021/04/04 07:13:25;;;;;;;11.27;7.70;;;;;;;5.38;60.25;95825.84;5088484;28;20598;-64
2021/04/04 07:16:00;;;;;;;9.95;7.43;;;;;;;5.33;60.03;95790.75;5088598;28;20153;-65
2021/04/04 07:18:55;;;;;;;7.50;6.70;;;;;;;5.45;59.51;95788.69;5088365;28;20040;-70
2021/04/04 07:21:41;;;;;;;7.72;6.22;;;;;;;5.68;58.38;95830.53;5088026;28;20054;-63
2021/04/04 07:24:25;;;;;;;7.28;6.57;;;;;;;5.09;59.40;95833.28;5088615;28;20074;-66
2021/04/04 07:27:16;;;;;;;10.80;6.70;;;;;;;4.99;60.38;95806.03;5077828;28;20485;-61
2021/04/04 07:30:03;;;;;;;10.45;6.72;;;;;;;5.65;58.66;95831.03;5068199;28;20029;-62
2021/04/04 07:32:42;;;;;;;9.75;7.00;;;;;;;5.66;57.98;95826.53;5063838;28;20028;-67
2021/04/04 07:35:13;;;;;;;10.35;6.28;;;;;;;6.10;58.06;95827.06;5066930;28;20212;-64
2021/04/04 07:37:52;;;;;;;12.07;7.35;;;;;;;5.42;55.94;95713.47;5070026;28;20568;-65
2021/04/04 07:40:27;;;;;;;8.55;6.20;;;;;;;6.43;56.62;95820.53;5088895;28;20110;-62
2021/04/04 07:43:05;;;;;;;9.65;6.75;;;;;;;6.36;55.73;95783.00;5074258;28;20113;-60
2021/04/04 07:45:51;;;;;;;7.80;6.45;;;;;;;6.80;55.26;95822.19;5069748;28;20051;-63
2021/04/04 07:48:27;;;;;;;12.27;6.38;;;;;;;6.88;55.01;95805.03;5072081;28;20058;-63
2021/04/04 07:51:12;;;;;;;9.30;6.97;;;;;;;7.12;53.79;95824.63;5071865;28;20072;-64
2021/04/04 07:54:02;;;;;;;7.68;5.78;;;;;;;7.26;53.42;95830.16;5067429;28;20033;-70
2021/04/04 07:56:45;;;;;;;6.90;6.10;;;;;;;7.41;52.30;95830.13;5071513;28;20029;-63
2021/04/04 07:59:16;;;;;;;8.68;6.00;;;;;;;7.55;52.00;95830.41;5072072;28;20386;-66
2021/04/04 08:01:57;;;;;;;6.68;5.47;;;;;;;7.36;50.34;95803.69;5073794;28;20110;-66
2021/04/04 08:04:49;;;;;;;8.45;6.10;;;;;;;7.29;50.46;95835.72;5072478;28;20032;-65
2021/04/04 08:07:14;;;;;;;8.95;5.47;;;;;;;7.61;50.02;95826.66;5072337;28;20036;-64
2021/04/04 08:09:57;;;;;;;7.60;5.95;;;;;;;7.73;48.64;95827.19;5086013;28;20129;-62
2021/04/04 08:13:06;;;;;;;8.52;6.07;;;;;;;7.95;47.87;95826.88;5091696;28;20081;-66
2021/04/04 08:15:45;;;;;;;9.68;5.75;;;;;;;8.53;48.04;95834.31;5050994;23;20092;-69
2021/04/04 08:18:11;;;;;;;8.45;5.45;;;;;;;8.90;46.68;95820.56;5031081;28;20046;-67
2021/04/04 08:20:42;;;;;;;9.20;5.13;;;;;;;9.04;45.57;95810.13;5040167;28;20046;-66
2021/04/04 08:23:51;;;;;;;7.10;5.50;;;;;;;9.45;44.64;95826.50;5011985;28;20069;-66
2021/04/04 08:26:28;;;;;;;7.03;4.00;;;;;;;9.73;42.64;95829.44;5006133;28;20052;-69
2021/04/04 08:29:08;;;;;;;5.30;3.97;;;;;;;9.63;40.87;95825.03;5011820;28;20368;-75
2021/04/04 08:31:42;;;;;;;4.13;3.58;;;;;;;9.72;40.90;95823.31;5012294;28;20030;-74
2021/04/04 08:34:17;;;;;;;4.28;3.53;;;;;;;9.27;40.24;95817.38;5011936;28;20052;-74
2021/04/04 08:36:53;;;;;;;7.40;3.97;;;;;;;9.05;41.42;95823.09;5009775;28;20070;-76
2021/04/04 08:39:21;;;;;;;8.23;4.07;;;;;;;9.12;41.56;95806.88;5012048;28;20049;-75
2021/04/04 08:41:48;;;;;;;6.22;3.60;;;;;;;9.35;41.92;95816.75;5019885;28;20506;-78
2021/04/04 08:44:21;;;;;;;5.35;3.00;;;;;;;9.49;39.97;95821.44;5047204;28;20034;-76
2021/04/04 08:47:09;;;;;;;4.05;2.70;;;;;;;9.65;39.00;95798.97;5033926;28;20029;-75
2021/04/04 08:49:36;;;;;;;4.35;2.53;;;;;;;9.56;37.02;95803.28;5010545;28;20038;-78
2021/04/04 08:52:17;;;;;;;3.42;2.42;;;;;;;9.35;36.27;95808.81;5010925;28;20034;-68
2021/04/04 08:54:48;;;;;;;4.10;2.90;;;;;;;9.78;37.16;95805.50;5011423;28;20495;-71
2021/04/04 08:57:14;;;;;;;3.17;2.72;;;;;;;10.30;37.31;95814.47;5011160;28;20038;-68
2021/04/04 08:59:43;;;;;;;8.65;2.88;;;;;;;10.49;34.95;95796.66;5011623;28;20038;-73
2021/04/04 09:02:10;;;;;;;6.32;4.20;;;;;;;11.06;34.79;95807.31;5014236;28;20034;-73
2021/04/04 09:04:40;;;;;;;6.97;3.17;;;;;;;11.39;33.32;95800.09;5031363;28;20108;-72
2021/04/04 09:07:06;;;;;;;4.05;2.10;;;;;;;11.64;31.84;95807.66;5029103;28;20030;-65
2021/04/04 09:09:38;;;;;;;3.63;2.55;;;;;;;11.16;32.58;95785.84;5016142;28;20463;-68
2021/04/04 09:12:05;;;;;;;3.40;2.55;;;;;;;11.29;44.42;95800.28;5021062;28;20037;-62
2021/04/04 09:14:38;;;;;;;4.70;2.70;;;;;;;11.76;32.65;95807.16;5024458;28;20045;-65
2021/04/04 09:17:12;;;;;;;3.55;2.60;;;;;;;11.89;31.69;95809.09;5012901;28;20037;-66
2021/04/04 09:19:40;;;;;;;5.75;3.05;;;;;;;11.79;30.84;95803.13;5032215;28;20025;-66
2021/04/04 09:22:08;;;;;;;3.70;2.47;;;;;;;12.05;30.72;95806.13;5010138;28;20030;-68
2021/04/04 09:24:54;;;;;;;5.78;2.78;;;;;;;12.34;30.51;95803.16;5010587;28;20530;-69
2021/04/04 09:27:22;;;;;;;3.35;2.53;;;;;;;12.48;30.25;95804.69;5010244;28;20038;-68
2021/04/04 09:29:55;;;;;;;3.95;2.47;;;;;;;12.56;29.40;95810.44;5009945;28;20093;-66
2021/04/04 09:32:38;;;;;;;3.10;2.40;;;;;;;12.47;30.67;95800.47;5026417;28;20113;-66
2021/04/04 09:35:05;;;;;;;3.75;2.70;;;;;;;12.40;29.25;95800.09;5027578;28;20026;-71
2021/04/04 09:37:31;;;;;;;2.95;2.55;;;;;;;12.46;29.79;95800.78;5031656;28;20028;-73
2021/04/04 09:39:58;;;;;;;4.22;2.95;;;;;;;12.52;29.54;95807.56;5030134;28;20072;-70
2021/04/04 09:42:28;;;;;;;4.00;2.92;;;;;;;12.58;29.41;95803.69;5029527;28;20058;-70
2021/04/04 09:45:12;;;;;;;5.45;2.92;;;;;;;12.40;29.89;95769.94;5030319;28;20476;-78
2021/04/04 09:47:37;;;;;;;4.22;2.65;;;;;;;12.28;28.95;95793.66;5022691;28;20084;-70
2021/04/04 09:50:17;;;;;;;3.90;2.67;;;;;;;11.28;30.73;95802.16;5012124;28;20054;-70
2021/04/04 09:52:42;;;;;;;5.90;2.97;;;;;;;11.80;30.17;95780.72;5031513;28;20013;-69
2021/04/04 09:55:10;;;;;;;4.82;2.97;;;;;;;12.21;29.97;95794.88;5010583;28;20057;-69
2021/04/04 09:57:56;;;;;;;3.25;2.90;;;;;;;12.90;30.14;95788.59;5024513;28;20041;-70
2021/04/04 10:00:27;;;;;;;4.00;2.90;;;;;;;12.96;28.45;95772.16;5029424;28;20491;-70
2021/04/04 10:02:55;;;;;;;3.47;2.83;;;;;;;12.77;28.26;95776.09;5029407;28;20080;-70
2021/04/04 10:05:25;;;;;;;4.75;2.60;;;;;;;13.17;28.12;95777.00;5023175;28;20034;-70
2021/04/04 10:07:51;;;;;;;4.97;2.75;;;;;;;13.05;27.92;95758.06;5010049;28;20025;-69
2021/04/04 10:10:27;;;;;;;3.10;2.70;;;;;;;13.13;27.60;95760.00;5030102;28;20084;-72
2021/04/04 10:13:00;;;;;;;3.63;2.67;;;;;;;13.33;27.56;95777.44;5029299;28;20059;-77
2021/04/04 10:15:26;;;;;;;4.72;2.90;;;;;;;13.31;27.58;95768.94;5016255;28;20042;-73
2021/04/04 10:17:55;;;;;;;3.35;2.20;;;;;;;12.46;27.27;95774.09;5009518;28;20041;-73
2021/04/04 10:20:37;;;;;;;5.60;2.50;;;;;;;11.50;28.94;95774.84;5009522;28;20059;-72
2021/04/04 10:23:04;;;;;;;3.35;2.67;;;;;;;10.10;30.47;95767.63;5009288;28;20092;-73
2021/04/04 10:25:29;;;;;;;4.43;2.83;;;;;;;10.38;30.97;95766.75;5011808;28;20105;-78
2021/04/04 10:28:08;;;;;;;4.57;2.45;;;;;;;9.67;31.03;95767.59;5008003;28;20452;-72
2021/04/04 10:30:36;;;;;;;3.55;2.30;;;;;;;9.05;32.45;95767.38;5023936;28;20038;-75
2021/04/04 10:33:19;;;;;;;2.72;2.28;;;;;;;8.28;33.02;95769.75;5029010;28;20404;-72
2021/04/04 10:35:45;;;;;;;5.43;2.38;;;;;;;8.50;32.60;95758.78;5029155;28;20224;-73
2021/04/04 10:38:16;;;;;;;3.80;2.10;;;;;;;8.30;33.46;95762.31;5027954;28;20034;-70
2021/04/04 10:40:52;;;;;;;3.42;2.50;;;;;;;8.31;33.56;95749.84;5030885;28;20026;-74
2021/04/04 10:43:20;;;;;;;4.35;2.60;;;;;;;8.58;33.12;95747.59;5024676;28;20066;-72
2021/04/04 10:46:00;;;;;;;8.23;2.97;;;;;;;9.02;32.90;95748.59;5025551;28;20033;-72
2021/04/04 10:48:28;;;;;;;4.03;2.72;;;;;;;9.24;33.15;95746.25;5028899;28;20128;-72
2021/04/04 10:50:54;;;;;;;2.60;2.40;;;;;;;9.00;32.84;95742.75;5028900;28;20048;-73
2021/04/04 10:53:21;;;;;;;4.57;2.45;;;;;;;9.30;32.56;95747.78;5028649;28;20065;-72
2021/04/04 10:55:47;;;;;;;3.92;2.47;;;;;;;9.15;32.33;95747.94;5030994;28;20033;-73
2021/04/04 10:58:20;;;;;;;3.42;2.53;;;;;;;9.18;32.60;95743.94;5009766;28;20042;-73
2021/04/04 11:00:46;;;;;;;4.25;2.63;;;;;;;9.80;32.05;95735.03;5008921;28;20045;-74
2021/04/04 11:03:11;;;;;;;5.05;2.60;;;;;;;10.01;32.73;95734.78;5020418;28;20026;-73
2021/04/04 11:05:37;;;;;;;3.40;2.50;;;;;;;9.87;31.63;95732.03;5022265;28;20510;-73
2021/04/04 11:08:06;;;;;;;5.90;2.88;;;;;;;10.11;30.79;95730.13;5010924;28;20479;-72
2021/04/04 11:10:31;;;;;;;4.57;2.47;;;;;;;10.24;30.99;95709.28;5030645;28;20025;-74
2021/04/04 11:12:59;;;;;;;4.00;2.65;;;;;;;10.44;30.72;95721.47;5010972;28;20041;-73
2021/04/04 11:15:29;;;;;;;4.30;2.65;;;;;;;10.47;30.63;95718.25;5021828;28;20037;-73
2021/04/04 11:17:55;;;;;;;5.15;3.05;;;;;;;10.70;30.19;95703.25;5028362;28;20031;-71
2021/04/04 11:20:22;;;;;;;4.43;2.95;;;;;;;10.74;30.07;95705.03;5023872;28;20106;-72
2021/04/04 11:22:47;;;;;;;3.33;2.50;;;;;;;10.81;29.49;95707.34;5010653;28;20109;-71
2021/04/04 11:25:16;;;;;;;3.85;2.60;;;;;;;10.91;29.37;95715.19;5028492;28;20157;-71
2021/04/04 11:27:51;;;;;;;2.90;2.60;;;;;;;10.92;29.18;95696.25;5012617;28;20030;-72
2021/04/04 11:30:37;;;;;;;3.67;2.70;;;;;;;11.17;28.45;95702.22;5020580;28;20176;-73
2021/04/04 11:33:18;;;;;;;7.00;2.85;;;;;;;11.28;28.65;95698.28;5028186;28;20072;-72
2021/04/04 11:36:06;;;;;;;2.95;2.10;;;;;;;10.68;29.20;95675.06;5020715;28;20042;-73
2021/04/04 11:38:53;;;;;;;3.47;3.05;;;;;;;10.76;29.03;95702.13;5023253;28;20123;-72
2021/04/04 11:41:27;;;;;;;5.28;2.80;;;;;;;9.46;30.84;95702.50;5012653;28;20042;-71
2021/04/04 11:44:19;;;;;;;4.45;2.90;;;;;;;9.54;30.89;95696.56;5008789;28;20106;-71
2021/04/04 11:46:54;;;;;;;4.15;2.50;;;;;;;9.22;31.26;95687.34;5010198;28;20033;-74
2021/04/04 11:49:40;;;;;;;2.97;2.67;;;;;;;8.66;31.56;95632.19;5026992;28;20091;-72
2021/04/04 11:52:08;;;;;;;3.45;2.50;;;;;;;9.67;30.82;95693.22;5007633;28;20042;-73
2021/04/04 11:54:49;;;;;;;3.60;2.40;;;;;;;10.16;29.79;95676.91;5008570;28;20031;-72
2021/04/04 11:57:20;;;;;;;3.40;2.35;;;;;;;10.15;29.68;95619.50;5008187;28;20121;-72
2021/04/04 11:59:50;;;;;;;4.57;3.22;;;;;;;10.73;29.80;95676.06;5023204;28;20138;-72